Time;durP1;ratioP1;P1;durP2;ratioP2;P2;SDS_P1;SDS_P2;PMS_P1;PMS_P2;Temp;Humidity;BMP_temperature;BMP_pressure;BME280_temperature;BME280_humidity;BME280_pressure;Samples;Min_cycle;Max_cycle;Signal;HPM_P1;HPM_P2
2022/04/17 00:01:46;;;;;;;7.90;7.10;;;5.10;99.90;;;;;;5052714;28;20222;-51
2022/04/17 00:04:15;;;;;;;10.60;8.63;;;5.00;99.90;;;;;;5054131;28;20220;-51
2022/04/17 00:06:43;;;;;;;10.60;8.80;;;4.90;99.90;;;;;;5053646;28;20253;-51
2022/04/17 00:09:11;;;;;;;9.60;7.53;;;4.80;99.90;;;;;;5054198;28;20277;-51
2022/04/17 00:11:42;;;;;;;9.20;6.87;;;4.80;99.90;;;;;;5053767;28;20580;-51
2022/04/17 00:14:11;;;;;;;8.77;7.57;;;4.70;99.90;;;;;;5041760;28;20232;-51
2022/04/17 00:16:40;;;;;;;8.77;7.40;;;4.70;99.90;;;;;;5033934;28;20635;-51
2022/04/17 00:19:09;;;;;;;9.27;7.67;;;4.60;99.90;;;;;;5033942;28;20260;-51
2022/04/17 00:21:38;;;;;;;10.03;7.77;;;4.60;99.90;;;;;;5034028;28;20219;-51
2022/04/17 00:24:06;;;;;;;8.30;7.40;;;4.50;99.90;;;;;;5032915;28;20226;-51
2022/04/17 00:26:34;;;;;;;8.50;7.40;;;4.50;99.90;;;;;;5033776;28;20230;-51
2022/04/17 00:29:03;;;;;;;8.50;7.10;;;4.50;99.90;;;;;;5033240;28;20212;-51
2022/04/17 00:31:31;;;;;;;9.30;6.77;;;4.50;99.90;;;;;;5033281;28;20209;-50
2022/04/17 00:34:00;;;;;;;6.67;5.97;;;4.50;99.90;;;;;;5033227;28;20235;-51
2022/04/17 00:36:29;;;;;;;8.17;5.73;;;4.60;99.90;;;;;;5033042;28;20266;-50
2022/04/17 00:38:58;;;;;;;6.73;5.17;;;4.60;99.90;;;;;;5033357;28;20297;-50
2022/04/17 00:41:26;;;;;;;7.13;5.60;;;4.50;99.90;;;;;;5033227;28;20859;-50
2022/04/17 00:43:54;;;;;;;7.43;5.67;;;4.50;99.90;;;;;;5033052;28;20231;-50
2022/04/17 00:46:22;;;;;;;6.63;5.83;;;4.50;99.90;;;;;;5033161;28;20739;-50
2022/04/17 00:48:50;;;;;;;7.57;5.83;;;4.50;99.90;;;;;;5032932;28;20205;-51
2022/04/17 00:51:20;;;;;;;7.83;6.03;;;4.50;99.90;;;;;;5033503;28;20215;-50
2022/04/17 00:53:49;;;;;;;6.00;5.17;;;4.40;99.90;;;;;;5032639;28;20249;-49
2022/04/17 00:56:17;;;;;;;7.17;5.30;;;4.40;99.90;;;;;;5033552;28;20211;-50
2022/04/17 00:58:46;;;;;;;8.20;6.17;;;4.30;99.90;;;;;;5033845;28;20235;-50
2022/04/17 01:01:14;;;;;;;8.10;5.97;;;4.30;99.90;;;;;;5053194;28;20260;-51
2022/04/17 01:03:42;;;;;;;5.67;5.13;;;4.20;99.90;;;;;;5052577;28;20236;-51
2022/04/17 01:06:11;;;;;;;5.83;5.10;;;4.20;99.90;;;;;;5052260;28;20256;-51
2022/04/17 01:08:41;;;;;;;7.03;5.47;;;4.10;99.90;;;;;;5053283;28;20251;-51
2022/04/17 01:11:11;;;;;;;7.10;5.47;;;4.10;99.90;;;;;;5052929;28;20209;-50
2022/04/17 01:13:41;;;;;;;8.30;5.23;;;4.00;99.90;;;;;;5052394;28;20226;-51
2022/04/17 01:16:10;;;;;;;8.37;5.50;;;4.00;99.90;;;;;;5052520;28;20213;-50
2022/04/17 01:18:55;;;;;;;9.90;5.63;;;4.00;99.90;;;;;;5052475;28;20731;-50
2022/04/17 01:21:25;;;;;;;8.30;5.80;;;4.00;99.90;;;;;;5052859;28;20263;-52
2022/04/17 01:26:59;;;;;;;7.03;5.30;;;3.90;99.90;;;;;;5054933;28;20702;-50
2022/04/17 01:29:31;;;;;;;7.77;5.43;;;3.90;99.90;;;;;;5051628;28;20624;-50
2022/04/17 01:31:59;;;;;;;7.07;5.33;;;3.90;99.90;;;;;;5052369;28;20223;-50
2022/04/17 01:34:28;;;;;;;7.77;6.40;;;3.80;99.90;;;;;;5052811;28;20212;-50
2022/04/17 01:36:57;;;;;;;7.20;5.90;;;3.80;99.90;;;;;;5052223;28;20213;-49
2022/04/17 01:39:26;;;;;;;7.77;6.37;;;3.80;99.90;;;;;;5052592;28;20259;-50
2022/04/17 01:41:56;;;;;;;9.03;6.83;;;3.80;99.90;;;;;;5051924;28;20208;-50
2022/04/17 01:44:25;;;;;;;8.43;6.60;;;3.70;99.90;;;;;;5053398;28;20233;-50
2022/04/17 01:46:54;;;;;;;7.00;5.87;;;3.70;99.90;;;;;;5052892;28;20208;-50
2022/04/17 01:49:23;;;;;;;7.33;6.23;;;3.70;99.90;;;;;;5052529;28;20707;-50
2022/04/17 01:51:52;;;;;;;9.37;6.57;;;3.70;99.90;;;;;;5051571;28;20637;-50
2022/04/17 01:54:24;;;;;;;10.27;6.50;;;3.60;99.90;;;;;;5051773;28;20328;-50
2022/04/17 01:56:53;;;;;;;7.40;6.33;;;3.60;99.90;;;;;;5051199;28;20711;-50
2022/04/17 01:59:23;;;;;;;7.40;6.20;;;3.60;99.90;;;;;;5051668;28;20291;-51
2022/04/17 02:01:52;;;;;;;7.43;5.50;;;3.60;99.90;;;;;;5052093;28;20742;-50
2022/04/17 02:04:20;;;;;;;6.23;5.63;;;3.50;99.90;;;;;;5052522;28;20295;-49
2022/04/17 02:06:49;;;;;;;6.17;5.53;;;3.50;99.90;;;;;;5051927;28;20201;-50
2022/04/17 02:09:17;;;;;;;9.77;6.00;;;3.50;99.90;;;;;;5052061;28;20692;-50
2022/04/17 02:11:47;;;;;;;7.10;5.53;;;3.50;99.90;;;;;;5051579;28;20202;-50
2022/04/17 02:14:15;;;;;;;8.80;6.10;;;3.50;99.90;;;;;;5039339;28;20238;-50
2022/04/17 02:16:44;;;;;;;8.00;5.93;;;3.50;99.90;;;;;;5032171;28;20210;-49
2022/04/17 02:19:12;;;;;;;7.17;5.80;;;3.50;99.90;;;;;;5030800;28;20278;-51
2022/04/17 02:21:40;;;;;;;6.90;6.17;;;3.50;99.90;;;;;;5030558;28;20697;-50
2022/04/17 02:24:08;;;;;;;6.80;6.10;;;3.50;99.90;;;;;;5031292;28;20226;-50
2022/04/17 02:26:36;;;;;;;8.53;6.43;;;3.50;99.90;;;;;;5031950;28;20695;-51
2022/04/17 02:29:06;;;;;;;10.37;6.37;;;3.50;99.90;;;;;;5031986;28;20205;-49
2022/04/17 02:31:34;;;;;;;8.80;6.53;;;3.50;99.90;;;;;;5031811;28;20217;-51
2022/04/17 02:34:02;;;;;;;7.53;6.37;;;3.50;99.90;;;;;;5031297;28;20791;-50
2022/04/17 02:36:30;;;;;;;8.83;6.57;;;3.50;99.90;;;;;;5031218;28;20214;-49
2022/04/17 02:38:59;;;;;;;8.30;6.43;;;3.40;99.90;;;;;;5031604;28;20702;-51
2022/04/17 02:41:27;;;;;;;9.67;6.90;;;3.40;99.90;;;;;;5031292;28;20216;-51
2022/04/17 02:43:55;;;;;;;8.70;6.43;;;3.30;99.90;;;;;;5031132;28;20226;-50
2022/04/17 02:49:11;;;;;;;7.77;6.40;;;3.30;99.90;;;;;;5031428;28;20246;-50
2022/04/17 02:51:39;;;;;;;9.07;6.33;;;3.20;99.90;;;;;;5031248;28;20216;-51
2022/04/17 02:54:07;;;;;;;7.93;6.07;;;3.20;99.90;;;;;;5030552;28;20234;-50
2022/04/17 02:56:35;;;;;;;8.70;6.07;;;3.10;99.90;;;;;;5030167;28;20202;-50
2022/04/17 02:59:03;;;;;;;8.67;6.43;;;3.10;99.90;;;;;;5032820;28;20280;-50
2022/04/17 03:07:04;;;;;;;7.93;6.13;;;3.20;99.90;;;;;;5050067;28;20208;-50
2022/04/17 03:09:33;;;;;;;10.60;7.03;;;3.20;99.90;;;;;;5050909;28;20251;-50
2022/04/17 03:12:01;;;;;;;8.17;5.90;;;3.20;99.90;;;;;;5050357;28;20674;-50
2022/04/17 03:14:29;;;;;;;8.03;6.37;;;3.20;99.90;;;;;;5051280;28;20201;-50
2022/04/17 03:16:58;;;;;;;8.00;6.27;;;3.10;99.90;;;;;;5051164;28;20628;-50
2022/04/17 03:19:27;;;;;;;8.40;6.67;;;3.10;99.90;;;;;;5051421;28;20270;-50
2022/04/17 03:21:55;;;;;;;9.00;6.20;;;3.00;99.90;;;;;;5050720;28;20283;-50
2022/04/17 03:24:23;;;;;;;6.23;5.63;;;3.00;99.90;;;;;;5050473;28;20628;-51
2022/04/17 03:26:51;;;;;;;9.47;6.43;;;2.90;99.90;;;;;;5050701;28;20672;-51
2022/04/17 03:29:19;;;;;;;7.57;5.87;;;2.90;99.90;;;;;;5050782;28;20202;-50
2022/04/17 03:31:48;;;;;;;6.70;6.07;;;2.90;99.90;;;;;;5050574;28;20794;-51
2022/04/17 03:34:18;;;;;;;7.63;6.23;;;2.80;99.90;;;;;;5045821;28;20230;-50
2022/04/17 03:36:48;;;;;;;9.43;6.70;;;2.80;99.90;;;;;;5030298;28;20751;-51
2022/04/17 03:39:16;;;;;;;7.10;6.20;;;2.80;99.90;;;;;;5030817;28;20233;-51
2022/04/17 03:41:44;;;;;;;10.50;6.47;;;2.80;99.90;;;;;;5030269;28;20210;-51
2022/04/17 03:44:12;;;;;;;7.50;6.00;;;2.80;99.90;;;;;;5031540;28;20222;-51
2022/04/17 03:46:41;;;;;;;8.87;6.37;;;2.80;99.90;;;;;;5050292;28;20216;-51
2022/04/17 03:49:09;;;;;;;7.77;6.40;;;2.80;99.90;;;;;;5050874;28;20259;-50
2022/04/17 03:51:39;;;;;;;10.43;6.60;;;2.80;99.90;;;;;;5050110;28;20202;-51
2022/04/17 03:54:07;;;;;;;7.97;6.47;;;2.80;99.90;;;;;;5049921;28;20652;-51
2022/04/17 03:56:35;;;;;;;8.00;6.10;;;2.80;99.90;;;;;;5050385;28;20206;-50
2022/04/17 03:59:03;;;;;;;7.37;6.50;;;2.80;99.90;;;;;;5050108;28;20226;-50
2022/04/17 04:01:31;;;;;;;9.17;6.57;;;2.70;99.90;;;;;;5050703;28;20218;-50
2022/04/17 04:04:00;;;;;;;8.47;6.83;;;2.70;99.90;;;;;;5049547;28;20255;-51
2022/04/17 04:06:29;;;;;;;8.57;6.73;;;2.70;99.90;;;;;;5050151;28;20797;-51
2022/04/17 04:08:58;;;;;;;8.47;6.83;;;2.70;99.90;;;;;;5050361;28;20205;-51
2022/04/17 04:11:27;;;;;;;7.50;6.70;;;2.70;99.90;;;;;;5050316;28;20206;-50
2022/04/17 04:13:55;;;;;;;7.33;6.63;;;2.70;99.90;;;;;;5049670;28;20283;-50
2022/04/17 04:16:23;;;;;;;8.17;6.67;;;2.70;99.90;;;;;;5050084;28;20261;-50
2022/04/17 04:18:51;;;;;;;8.57;6.90;;;2.70;99.90;;;;;;5050198;28;20347;-50
2022/04/17 04:21:20;;;;;;;9.43;7.07;;;2.70;99.90;;;;;;5049719;28;20261;-51
2022/04/17 04:23:48;;;;;;;10.90;7.40;;;2.70;99.90;;;;;;5051728;28;20729;-50
2022/04/17 04:26:17;;;;;;;11.23;6.90;;;2.60;99.90;;;;;;5053876;28;20211;-50
2022/04/17 04:28:45;;;;;;;9.70;7.07;;;2.60;99.90;;;;;;5053580;28;20209;-50
2022/04/17 04:31:14;;;;;;;9.30;7.13;;;2.60;99.90;;;;;;5053717;28;20204;-51
2022/04/17 04:33:44;;;;;;;10.57;7.23;;;2.60;99.90;;;;;;5053142;28;20232;-50
2022/04/17 04:36:13;;;;;;;9.73;7.90;;;2.70;99.90;;;;;;5053213;28;20705;-51
2022/04/17 04:38:41;;;;;;;10.37;7.60;;;2.70;99.90;;;;;;5053559;28;20208;-51
2022/04/17 04:41:10;;;;;;;10.60;8.00;;;2.70;99.90;;;;;;5053529;28;20298;-51
2022/04/17 04:43:39;;;;;;;9.93;7.30;;;2.70;99.90;;;;;;5052620;28;20229;-50
2022/04/17 04:46:06;;;;;;;11.60;7.50;;;2.80;99.90;;;;;;5053752;28;20219;-51
2022/04/17 04:51:21;;;;;;;9.03;7.40;;;2.70;99.90;;;;;;5053760;28;20204;-50
2022/04/17 04:53:49;;;;;;;9.33;7.47;;;2.70;99.90;;;;;;5052387;28;20253;-51
2022/04/17 04:56:18;;;;;;;9.33;6.80;;;2.70;99.90;;;;;;5052281;28;20205;-51
2022/04/17 04:58:48;;;;;;;8.87;7.70;;;2.70;99.90;;;;;;5053442;28;20263;-50
2022/04/17 05:01:16;;;;;;;10.23;6.83;;;3.20;99.90;;;;;;5033040;28;20237;-51
2022/04/17 05:03:44;;;;;;;8.17;6.97;;;4.00;99.90;;;;;;5032757;28;20280;-50
2022/04/17 05:06:13;;;;;;;11.37;6.97;;;4.70;99.90;;;;;;5036715;28;20218;-51
2022/04/17 05:08:41;;;;;;;9.80;7.80;;;5.30;99.90;;;;;;5052780;28;20243;-51
2022/04/17 05:11:09;;;;;;;7.40;6.57;;;5.80;99.90;;;;;;5052873;28;20670;-50
2022/04/17 05:13:38;;;;;;;7.80;6.60;;;6.20;99.90;;;;;;5052455;28;20275;-51
2022/04/17 05:16:08;;;;;;;7.50;6.70;;;6.60;99.90;;;;;;5052671;28;20205;-50
2022/04/17 05:18:37;;;;;;;6.90;6.10;;;6.40;99.90;;;;;;5053088;28;20235;-50
2022/04/17 05:21:06;;;;;;;10.70;6.70;;;6.10;99.90;;;;;;5053124;28;20278;-50
2022/04/17 05:23:36;;;;;;;8.20;7.17;;;6.00;99.90;;;;;;5052266;28;20240;-51
2022/04/17 05:26:05;;;;;;;6.87;6.17;;;6.20;99.90;;;;;;5052795;28;20211;-51
2022/04/17 05:28:33;;;;;;;8.60;7.20;;;6.10;99.90;;;;;;5051322;28;20205;-51
2022/04/17 05:31:01;;;;;;;7.03;6.20;;;6.00;99.90;;;;;;5051744;28;20213;-51
2022/04/17 05:33:31;;;;;;;7.93;7.07;;;5.90;99.90;;;;;;5048275;28;20312;-50
2022/04/17 05:35:59;;;;;;;8.30;6.73;;;5.60;99.90;;;;;;5049682;28;20213;-50
2022/04/17 05:38:27;;;;;;;10.83;6.63;;;5.70;99.90;;;;;;5048347;28;20220;-51
2022/04/17 05:40:56;;;;;;;8.50;6.30;;;5.60;99.90;;;;;;5049032;28;20234;-50
2022/04/17 05:43:25;;;;;;;9.87;6.73;;;5.50;99.90;;;;;;5050313;28;20233;-51
2022/04/17 05:45:53;;;;;;;10.83;7.23;;;5.40;99.90;;;;;;5048581;28;20206;-51
2022/04/17 05:48:21;;;;;;;8.23;6.77;;;5.30;99.90;;;;;;5047633;28;20255;-51
2022/04/17 05:50:51;;;;;;;8.93;6.87;;;5.50;99.90;;;;;;5051103;28;20206;-50
2022/04/17 05:53:19;;;;;;;8.70;6.60;;;5.60;99.90;;;;;;5049947;28;20282;-50
2022/04/17 05:55:47;;;;;;;6.97;6.27;;;5.60;99.90;;;;;;5049972;28;20330;-51
2022/04/17 05:58:16;;;;;;;7.40;6.70;;;5.60;99.90;;;;;;5051646;28;20260;-50
2022/04/17 06:00:44;;;;;;;8.90;6.47;;;5.60;99.90;;;;;;5051480;28;20229;-50
2022/04/17 06:03:15;;;;;;;9.13;6.73;;;5.60;99.90;;;;;;5050880;28;20287;-50
2022/04/17 06:05:44;;;;;;;9.83;7.90;;;5.70;99.90;;;;;;5051331;28;20226;-50
2022/04/17 06:08:14;;;;;;;7.53;6.80;;;5.80;99.90;;;;;;5050848;28;20213;-50
2022/04/17 06:10:42;;;;;;;9.47;6.70;;;5.90;99.90;;;;;;5048121;28;20254;-50
2022/04/17 06:13:11;;;;;;;9.23;7.33;;;6.00;99.90;;;;;;5049652;28;20612;-51
2022/04/17 06:15:40;;;;;;;9.37;7.17;;;6.10;99.90;;;;;;5040576;28;20227;-49
2022/04/17 06:18:09;;;;;;;9.63;7.50;;;6.60;99.90;;;;;;5049894;28;20625;-50
2022/04/17 06:20:37;;;;;;;9.17;7.37;;;7.50;99.90;;;;;;5050233;28;20243;-51
2022/04/17 06:23:05;;;;;;;8.03;6.77;;;8.30;99.90;;;;;;5049309;28;20229;-51
2022/04/17 06:25:35;;;;;;;8.27;7.33;;;9.00;99.90;;;;;;5049704;28;20236;-51
2022/04/17 06:28:03;;;;;;;7.47;6.63;;;9.40;99.90;;;;;;5049160;28;20624;-50
2022/04/17 06:30:31;;;;;;;7.60;6.70;;;9.90;99.90;;;;;;5048727;28;20194;-50
2022/04/17 06:33:00;;;;;;;8.23;6.70;;;10.30;99.90;;;;;;5048531;28;20355;-51
2022/04/17 06:35:28;;;;;;;7.70;6.73;;;10.50;99.90;;;;;;5043445;28;20218;-51
2022/04/17 06:37:58;;;;;;;7.70;6.50;;;10.80;99.90;;;;;;5051202;28;20267;-51
2022/04/17 06:40:27;;;;;;;7.63;6.83;;;11.10;99.90;;;;;;5050932;28;20600;-50
2022/04/17 06:43:00;;;;;;;7.43;6.73;;;11.40;99.90;;;;;;5050568;28;20312;-51
2022/04/17 06:45:29;;;;;;;12.60;6.73;;;11.60;99.90;;;;;;5050723;28;20225;-51
2022/04/17 06:47:57;;;;;;;8.00;7.00;;;11.70;99.90;;;;;;5051262;28;20209;-51
2022/04/17 06:50:25;;;;;;;9.57;7.30;;;12.00;99.90;;;;;;5050671;28;20198;-51
2022/04/17 06:52:54;;;;;;;8.60;7.57;;;12.30;99.90;;;;;;5048405;28;20236;-50
2022/04/17 06:55:22;;;;;;;9.17;7.53;;;12.50;99.90;;;;;;5037489;28;20470;-52
2022/04/17 06:57:51;;;;;;;8.38;7.20;;;12.70;99.90;;;;;;5049863;28;20202;-52
2022/04/17 07:00:22;;;;;;;8.02;7.28;;;12.80;99.90;;;;;;5050264;28;20612;-52
2022/04/17 07:02:51;;;;;;;8.63;7.60;;;12.90;99.90;;;;;;5050313;28;20228;-51
2022/04/17 07:05:20;;;;;;;8.20;7.18;;;13.10;99.90;;;;;;5050853;28;20210;-52
2022/04/17 07:07:58;;;;;;;7.55;6.85;;;13.20;99.90;;;;;;5050358;28;20214;-51
2022/04/17 07:10:26;;;;;;;8.32;6.88;;;13.40;99.90;;;;;;5045884;28;20634;-51
2022/04/17 07:12:55;;;;;;;8.73;7.35;;;13.60;99.90;;;;;;5042924;28;20356;-50
2022/04/17 07:15:25;;;;;;;8.93;7.32;;;13.80;99.90;;;;;;5041319;28;20225;-51
2022/04/17 07:17:54;;;;;;;7.93;7.10;;;13.90;99.50;;;;;;5044099;28;20237;-51
2022/04/17 07:20:24;;;;;;;9.02;7.18;;;14.00;99.60;;;;;;5041707;28;20213;-51
2022/04/17 07:22:53;;;;;;;8.05;7.25;;;14.20;99.60;;;;;;5045640;28;20229;-52
2022/04/17 07:25:21;;;;;;;8.15;7.30;;;14.40;98.70;;;;;;5043022;28;20205;-52
2022/04/17 07:27:51;;;;;;;7.90;7.10;;;14.40;99.00;;;;;;5048608;28;20201;-51
2022/04/17 07:30:22;;;;;;;8.38;7.43;;;14.40;99.10;;;;;;5051539;28;20201;-51
2022/04/17 07:32:54;;;;;;;8.75;7.05;;;14.30;97.70;;;;;;5047347;28;20938;-51
2022/04/17 07:35:23;;;;;;;9.98;7.15;;;14.40;99.10;;;;;;5046619;28;20741;-51
2022/04/17 07:37:52;;;;;;;8.52;6.68;;;14.50;98.70;;;;;;5047134;28;20582;-51
2022/04/17 07:40:24;;;;;;;9.20;6.50;;;14.70;97.50;;;;;;5048337;28;20304;-50
2022/04/17 07:42:53;;;;;;;8.57;7.13;;;14.70;96.70;;;;;;5046716;28;20237;-51
2022/04/17 07:45:22;;;;;;;7.20;6.22;;;14.90;97.40;;;;;;5051095;28;20758;-50
2022/04/17 07:47:52;;;;;;;6.47;5.88;;;15.20;97.00;;;;;;5049047;28;20875;-51
2022/04/17 07:50:23;;;;;;;5.70;5.20;;;15.40;96.10;;;;;;5049658;28;20586;-50
2022/04/17 07:52:53;;;;;;;7.32;5.18;;;15.40;96.70;;;;;;5049118;28;20237;-51
2022/04/17 07:55:23;;;;;;;5.95;5.38;;;15.20;94.80;;;;;;5049710;28;20217;-51
2022/04/17 07:57:57;;;;;;;7.30;5.90;;;15.10;93.60;;;;;;5045626;28;20578;-50
2022/04/17 08:00:27;;;;;;;7.45;5.15;;;15.10;93.70;;;;;;5051616;28;20197;-51
2022/04/17 08:03:20;;;;;;;7.63;5.35;;;14.90;93.10;;;;;;5052196;28;20304;-51
2022/04/17 08:05:50;;;;;;;6.30;4.85;;;14.80;92.50;;;;;;5053092;28;20752;-50
2022/04/17 08:08:19;;;;;;;5.93;5.05;;;14.70;92.20;;;;;;5052653;28;20212;-51
2022/04/17 08:10:47;;;;;;;4.97;4.32;;;14.40;93.10;;;;;;5052966;28;20259;-50
2022/04/17 08:13:16;;;;;;;5.53;4.57;;;14.10;93.30;;;;;;5052500;28;20256;-51
2022/04/17 08:15:44;;;;;;;5.70;4.60;;;13.80;92.80;;;;;;5048001;28;20304;-51
2022/04/17 08:18:14;;;;;;;4.75;4.32;;;13.60;93.20;;;;;;5052488;28;20624;-51
2022/04/17 08:20:43;;;;;;;5.97;4.23;;;13.50;93.00;;;;;;5052651;28;20283;-51
2022/04/17 08:23:11;;;;;;;5.30;4.50;;;13.50;92.90;;;;;;5052517;28;20238;-51
2022/04/17 08:25:39;;;;;;;5.63;4.33;;;13.40;93.40;;;;;;5053138;28;20217;-51
2022/04/17 08:28:08;;;;;;;4.40;4.00;;;13.60;94.40;;;;;;5052901;28;20220;-51
2022/04/17 08:30:38;;;;;;;4.77;4.27;;;13.70;94.50;;;;;;5052465;28;20213;-51
2022/04/17 08:33:08;;;;;;;5.20;4.20;;;13.80;95.60;;;;;;5051589;28;20226;-50
2022/04/17 08:35:38;;;;;;;5.10;4.50;;;13.80;94.30;;;;;;5048393;28;20275;-51
2022/04/17 08:38:06;;;;;;;6.20;4.00;;;13.80;94.50;;;;;;5050132;28;20206;-51
2022/04/17 08:40:35;;;;;;;5.77;4.00;;;13.80;94.30;;;;;;5052296;28;20287;-51
2022/04/17 08:43:07;;;;;;;5.00;4.50;;;13.90;94.10;;;;;;5052654;28;20637;-51
2022/04/17 08:45:35;;;;;;;5.73;4.30;;;13.80;93.70;;;;;;5052135;28;20224;-51
2022/04/17 08:48:05;;;;;;;6.87;4.37;;;13.80;93.70;;;;;;5051533;28;20221;-51
2022/04/17 08:50:38;;;;;;;5.73;4.50;;;13.80;93.00;;;;;;5052792;28;20236;-51
2022/04/17 08:53:08;;;;;;;6.33;3.93;;;13.90;93.40;;;;;;5050113;28;20229;-50
2022/04/17 08:55:36;;;;;;;6.17;4.70;;;13.80;92.30;;;;;;5052223;28;20690;-50
2022/04/17 08:58:05;;;;;;;6.53;4.40;;;13.70;92.80;;;;;;5051991;28;20224;-51
2022/04/17 09:00:33;;;;;;;5.23;4.57;;;13.80;92.70;;;;;;5045768;28;20622;-50
2022/04/17 09:03:01;;;;;;;5.93;4.50;;;13.80;92.80;;;;;;5045220;28;20240;-50
2022/04/17 09:05:34;;;;;;;6.40;4.60;;;13.80;92.00;;;;;;5049828;28;20205;-51
2022/04/17 09:08:15;;;;;;;6.60;4.60;;;13.90;92.50;;;;;;5049733;28;20224;-50
2022/04/17 09:10:53;;;;;;;6.90;4.77;;;13.90;92.80;;;;;;5049636;28;20209;-51
2022/04/17 09:13:30;;;;;;;4.90;4.40;;;14.00;92.50;;;;;;5049442;28;20221;-51
2022/04/17 09:15:59;;;;;;;6.20;4.57;;;13.90;92.00;;;;;;5046213;28;20666;-50
2022/04/17 09:18:32;;;;;;;6.30;4.77;;;13.90;92.90;;;;;;5048376;28;20240;-51
2022/04/17 09:21:02;;;;;;;8.63;5.30;;;13.80;92.20;;;;;;5047287;28;20209;-51
2022/04/17 09:23:36;;;;;;;5.77;4.83;;;13.90;92.20;;;;;;5048890;28;20304;-50
2022/04/17 09:26:05;;;;;;;9.00;5.20;;;13.80;91.10;;;;;;5048871;28;20756;-51
2022/04/17 09:28:35;;;;;;;7.37;5.10;;;13.80;90.70;;;;;;5049090;28;20262;-50
2022/04/17 09:31:11;;;;;;;5.73;4.83;;;13.90;91.00;;;;;;5048486;28;20201;-51
2022/04/17 09:33:42;;;;;;;5.27;4.57;;;14.00;92.40;;;;;;5049039;28;20248;-51
2022/04/17 09:36:12;;;;;;;6.33;5.00;;;14.00;92.70;;;;;;5049897;28;20218;-51
2022/04/17 09:38:47;;;;;;;5.80;4.50;;;14.10;90.70;;;;;;5050132;28;20687;-51
2022/04/17 09:41:17;;;;;;;5.20;4.70;;;14.00;91.30;;;;;;5050768;28;20214;-51
2022/04/17 09:43:47;;;;;;;8.23;4.37;;;14.20;91.00;;;;;;5045164;28;20343;-51
2022/04/17 09:46:16;;;;;;;5.77;4.00;;;14.10;81.90;;;;;;5048545;28;20216;-51
2022/04/17 09:48:45;;;;;;;6.13;3.70;;;14.10;83.70;;;;;;5047118;28;20217;-51
2022/04/17 09:51:23;;;;;;;5.40;3.90;;;14.20;81.50;;;;;;5049090;28;20201;-50
2022/04/17 09:54:01;;;;;;;6.63;4.37;;;14.20;82.70;;;;;;5046864;28;20228;-51
2022/04/17 09:56:34;;;;;;;5.07;4.00;;;14.20;79.80;;;;;;5047573;28;20205;-51
2022/04/17 09:59:16;;;;;;;5.93;4.10;;;14.20;80.70;;;;;;5050153;28;20248;-51
2022/04/17 10:01:46;;;;;;;5.17;3.90;;;14.30;83.60;;;;;;5045430;28;20294;-51
2022/04/17 10:04:16;;;;;;;4.93;3.60;;;14.20;82.30;;;;;;5050355;28;20228;-51
2022/04/17 10:06:45;;;;;;;5.67;3.80;;;14.20;81.50;;;;;;5045123;28;20206;-51
2022/04/17 10:09:14;;;;;;;5.20;4.40;;;14.30;83.40;;;;;;5049594;28;20209;-50
2022/04/17 10:11:43;;;;;;;6.97;4.00;;;14.30;82.00;;;;;;5049459;28;20635;-51
2022/04/17 10:14:11;;;;;;;5.00;3.80;;;14.20;80.20;;;;;;5050522;28;20229;-51
2022/04/17 10:16:42;;;;;;;4.20;3.17;;;14.40;79.00;;;;;;5050678;28;20306;-51
2022/04/17 10:19:13;;;;;;;4.43;3.10;;;14.30;73.20;;;;;;5051181;28;20225;-51
2022/04/17 10:21:42;;;;;;;4.80;3.13;;;14.40;69.80;;;;;;5050044;28;20210;-51
2022/04/17 10:24:14;;;;;;;3.40;3.10;;;14.30;72.60;;;;;;5050413;28;20241;-51
2022/04/17 10:26:47;;;;;;;3.13;2.77;;;14.30;74.60;;;;;;5048580;28;20221;-51
2022/04/17 10:29:22;;;;;;;4.43;3.30;;;14.40;72.30;;;;;;5047434;28;20217;-50
2022/04/17 10:32:08;;;;;;;3.87;3.30;;;14.40;72.20;;;;;;5050223;28;20216;-50
2022/04/17 10:34:57;;;;;;;3.40;3.07;;;14.50;72.30;;;;;;5048373;28;20205;-51
2022/04/17 10:38:03;;;;;;;3.70;2.97;;;14.50;68.90;;;;;;5050262;28;20205;-51
2022/04/17 10:40:34;;;;;;;2.87;2.53;;;14.30;67.80;;;;;;5009527;28;20205;-50
2022/04/17 10:43:04;;;;;;;4.30;2.63;;;14.30;68.00;;;;;;5047569;28;20221;-51
2022/04/17 10:45:32;;;;;;;4.47;3.40;;;14.20;65.50;;;;;;5047338;28;20201;-50
2022/04/17 10:48:09;;;;;;;3.23;2.90;;;14.20;68.10;;;;;;5048190;28;20205;-50
2022/04/17 10:50:44;;;;;;;3.97;2.77;;;14.30;66.80;;;;;;5048316;28;20210;-51
2022/04/17 10:53:25;;;;;;;3.47;2.63;;;14.20;64.40;;;;;;5044539;28;20221;-51
2022/04/17 10:56:05;;;;;;;2.83;2.40;;;14.30;68.40;;;;;;5045304;28;20208;-52
2022/04/17 10:58:37;;;;;;;3.87;2.37;;;14.40;61.00;;;;;;5040313;28;20239;-50
2022/04/17 11:01:06;;;;;;;4.47;2.60;;;14.40;60.30;;;;;;5048943;28;20206;-50
2022/04/17 11:03:35;;;;;;;3.67;2.80;;;14.40;59.90;;;;;;5048314;28;20272;-51
2022/04/17 11:06:30;;;;;;;3.93;2.80;;;14.50;62.60;;;;;;5050528;28;20252;-51
2022/04/17 11:09:05;;;;;;;3.90;2.77;;;14.50;65.40;;;;;;5048448;28;20205;-50
2022/04/17 11:11:39;;;;;;;4.33;3.10;;;14.60;65.50;;;;;;5049872;28;20205;-50
2022/04/17 11:14:13;;;;;;;3.63;2.80;;;14.70;61.60;;;;;;5032840;28;20749;-51
2022/04/17 11:16:46;;;;;;;3.67;2.67;;;14.60;60.80;;;;;;5040716;28;20209;-51
2022/04/17 11:19:16;;;;;;;5.53;3.20;;;14.60;62.30;;;;;;5050123;28;20201;-51
2022/04/17 11:21:46;;;;;;;3.60;2.90;;;14.60;64.10;;;;;;5048170;28;20218;-51
2022/04/17 11:24:14;;;;;;;5.17;3.30;;;14.70;61.10;;;;;;5050326;28;20225;-50
2022/04/17 11:27:10;;;;;;;3.63;3.17;;;14.60;64.90;;;;;;5039654;28;20264;-51
2022/04/17 11:29:41;;;;;;;4.03;3.50;;;14.80;68.40;;;;;;5030421;28;20295;-49
2022/04/17 11:32:47;;;;;;;4.37;3.43;;;14.80;66.90;;;;;;5031537;28;20201;-49
2022/04/17 11:35:17;;;;;;;5.20;4.07;;;14.80;69.80;;;;;;5030991;28;20210;-50
2022/04/17 11:37:53;;;;;;;5.30;3.80;;;14.80;71.00;;;;;;5051277;28;20209;-50
2022/04/17 11:40:23;;;;;;;5.97;3.83;;;15.00;73.60;;;;;;5052657;28;20205;-50
2022/04/17 11:42:55;;;;;;;5.03;3.60;;;15.00;69.30;;;;;;5053316;28;20597;-50
2022/04/17 11:45:25;;;;;;;6.40;4.40;;;15.00;69.20;;;;;;5035583;28;20248;-50
2022/04/17 11:47:55;;;;;;;4.57;3.83;;;15.00;70.70;;;;;;5034175;28;20210;-51
2022/04/17 11:50:27;;;;;;;6.27;4.13;;;14.80;70.00;;;;;;5050268;28;20687;-50
2022/04/17 11:52:56;;;;;;;7.03;4.40;;;14.80;69.10;;;;;;5053207;28;20234;-51
2022/04/17 11:55:27;;;;;;;5.47;4.00;;;14.70;72.70;;;;;;5038364;28;20621;-51
2022/04/17 11:57:57;;;;;;;4.37;3.50;;;14.60;69.40;;;;;;5033454;28;20195;-50
2022/04/17 12:00:26;;;;;;;5.23;3.77;;;14.70;67.70;;;;;;5048507;28;20205;-50
2022/04/17 12:03:06;;;;;;;5.47;3.97;;;14.80;69.30;;;;;;5053056;28;20231;-51
2022/04/17 12:05:37;;;;;;;3.80;3.40;;;14.80;69.20;;;;;;5057211;28;20251;-50
2022/04/17 12:08:13;;;;;;;5.33;3.70;;;14.90;65.30;;;;;;5058152;28;20200;-49
2022/04/17 12:10:43;;;;;;;3.90;3.33;;;14.70;64.90;;;;;;5051252;28;20202;-51
2022/04/17 12:13:18;;;;;;;4.33;3.53;;;14.80;65.10;;;;;;5034497;28;20232;-51
2022/04/17 12:15:48;;;;;;;5.03;3.20;;;14.60;64.60;;;;;;5049323;28;20201;-51
2022/04/17 12:18:19;;;;;;;5.80;3.40;;;14.50;64.40;;;;;;5053512;28;20686;-51
2022/04/17 12:20:58;;;;;;;4.23;3.43;;;14.60;66.60;;;;;;5038187;28;20229;-51
2022/04/17 12:23:28;;;;;;;4.30;3.20;;;14.60;65.60;;;;;;5032699;28;20226;-50
2022/04/17 12:25:58;;;;;;;4.87;3.83;;;14.60;64.00;;;;;;5051294;28;20209;-50
2022/04/17 12:28:28;;;;;;;5.73;3.87;;;14.60;65.50;;;;;;5051639;28;20202;-51
2022/04/17 12:30:56;;;;;;;5.07;3.50;;;14.60;66.20;;;;;;5053655;28;20206;-51
2022/04/17 12:33:27;;;;;;;5.23;3.97;;;14.50;63.60;;;;;;5046325;28;20228;-51
2022/04/17 12:36:07;;;;;;;4.03;3.47;;;14.50;63.20;;;;;;5051849;28;20248;-50
2022/04/17 12:38:36;;;;;;;4.40;3.50;;;14.40;64.30;;;;;;5051987;28;20270;-51
2022/04/17 12:41:18;;;;;;;5.90;3.60;;;14.40;64.30;;;;;;5052678;28;20210;-50
2022/04/17 12:43:50;;;;;;;4.87;3.23;;;14.50;66.20;;;;;;5050783;28;20317;-51
2022/04/17 12:46:29;;;;;;;3.80;3.27;;;14.60;64.50;;;;;;5051945;28;20245;-50
2022/04/17 12:49:05;;;;;;;5.03;3.70;;;14.60;62.70;;;;;;5041144;28;20226;-50
2022/04/17 12:51:34;;;;;;;6.10;3.77;;;14.50;58.70;;;;;;5032822;28;20272;-50
2022/04/17 12:54:03;;;;;;;5.07;3.60;;;14.50;58.70;;;;;;5040412;28;20615;-50
2022/04/17 12:56:31;;;;;;;4.07;3.33;;;14.50;59.80;;;;;;5045519;28;20802;-50
2022/04/17 12:59:02;;;;;;;5.30;3.73;;;14.60;60.00;;;;;;5034087;28;20217;-51
2022/04/17 13:01:32;;;;;;;5.90;3.93;;;14.50;62.00;;;;;;5051468;28;20663;-50
2022/04/17 13:04:12;;;;;;;4.20;3.60;;;14.60;63.50;;;;;;5039484;28;20234;-50
2022/04/17 13:06:41;;;;;;;5.17;3.90;;;14.70;62.60;;;;;;5039110;28;20201;-50
2022/04/17 13:09:12;;;;;;;7.30;4.43;;;14.70;61.00;;;;;;5052542;28;20216;-51
2022/04/17 13:11:44;;;;;;;4.30;3.80;;;14.80;60.50;;;;;;5050714;28;20217;-51
2022/04/17 13:14:13;;;;;;;4.40;3.77;;;14.60;61.10;;;;;;5032206;28;20223;-50
2022/04/17 13:16:49;;;;;;;5.20;3.87;;;14.60;64.40;;;;;;5037877;28;20198;-50
2022/04/17 13:19:18;;;;;;;17.93;8.27;;;14.70;61.20;;;;;;5052481;28;20724;-50
2022/04/17 13:21:47;;;;;;;4.20;3.50;;;14.80;61.50;;;;;;5044645;28;20209;-51